Time;durP1;ratioP1;P1;durP2;ratioP2;P2;SDS_P1;SDS_P2;PMS_P1;PMS_P2;Temp;Humidity;BMP_temperature;BMP_pressure;BME280_temperature;BME280_humidity;BME280_pressure;Samples;Min_cycle;Max_cycle;Signal;HPM_P1;HPM_P2
2022/09/21 00:01:26;;;;;;;7.72;3.10;;;20.90;99.90;;;;;;4992109;28;20197;-71
2022/09/21 00:03:56;;;;;;;5.20;2.93;;;20.90;99.90;;;;;;4975080;28;20212;-74
2022/09/21 00:06:26;;;;;;;9.00;2.83;;;20.80;99.90;;;;;;4991970;28;20196;-74
2022/09/21 00:08:54;;;;;;;8.23;3.10;;;20.80;99.90;;;;;;4990412;28;20206;-74
2022/09/21 00:11:29;;;;;;;9.00;3.40;;;20.80;99.90;;;;;;4990118;28;20220;-74
2022/09/21 00:14:01;;;;;;;7.30;2.70;;;20.70;99.90;;;;;;4988903;28;20196;-74
2022/09/21 00:16:30;;;;;;;5.60;2.80;;;20.70;99.90;;;;;;4982477;28;20635;-74
2022/09/21 00:18:56;;;;;;;6.90;3.03;;;20.70;99.90;;;;;;4986782;28;20207;-74
2022/09/21 00:21:23;;;;;;;9.53;2.90;;;20.60;99.90;;;;;;4989288;28;20196;-74
2022/09/21 00:23:50;;;;;;;9.20;2.57;;;20.60;99.90;;;;;;4984375;28;20239;-74
2022/09/21 00:26:21;;;;;;;8.97;3.00;;;20.50;99.90;;;;;;5007087;28;20900;-74
2022/09/21 00:28:56;;;;;;;4.93;2.90;;;20.50;99.90;;;;;;4972524;28;20182;-74
2022/09/21 00:31:24;;;;;;;6.03;2.70;;;20.50;99.90;;;;;;4977542;28;20185;-74
2022/09/21 00:33:51;;;;;;;4.57;2.57;;;20.50;99.90;;;;;;5016159;28;20192;-74
2022/09/21 00:36:22;;;;;;;6.23;2.57;;;20.50;99.90;;;;;;5009875;28;20683;-74
2022/09/21 00:38:52;;;;;;;5.23;2.60;;;20.50;99.90;;;;;;5007990;28;20300;-74
2022/09/21 00:41:19;;;;;;;10.27;2.80;;;20.50;99.90;;;;;;5008429;28;20268;-74
2022/09/21 00:44:08;;;;;;;7.70;3.00;;;20.40;99.90;;;;;;5008341;28;20196;-74
2022/09/21 00:46:38;;;;;;;9.90;3.13;;;20.40;99.90;;;;;;5011378;28;20557;-74
2022/09/21 00:49:06;;;;;;;9.07;3.07;;;20.40;99.90;;;;;;5009587;28;20219;-74
2022/09/21 00:51:32;;;;;;;6.10;2.80;;;20.40;99.90;;;;;;4984984;28;20284;-74
2022/09/21 00:54:06;;;;;;;5.73;2.70;;;20.40;99.90;;;;;;5008227;28;20279;-74
2022/09/21 00:56:35;;;;;;;6.93;2.83;;;20.40;99.90;;;;;;4992095;28;20184;-74
2022/09/21 00:59:03;;;;;;;8.43;2.60;;;20.40;99.90;;;;;;5002460;28;20219;-74
2022/09/21 01:01:30;;;;;;;9.57;3.10;;;20.40;99.90;;;;;;4977359;28;20204;-74
2022/09/21 01:03:56;;;;;;;4.70;2.47;;;20.40;99.90;;;;;;5008961;28;20188;-74
2022/09/21 01:06:25;;;;;;;8.57;2.73;;;20.40;99.90;;;;;;4992722;28;20610;-74
2022/09/21 01:08:57;;;;;;;5.67;2.53;;;20.30;99.90;;;;;;4975251;28;21227;-74
2022/09/21 01:12:02;;;;;;;8.07;2.60;;;20.30;99.90;;;;;;4989220;28;20225;-73
2022/09/21 01:14:47;;;;;;;9.57;2.90;;;20.30;99.90;;;;;;5012562;28;20196;-74
2022/09/21 01:17:24;;;;;;;4.77;2.40;;;20.30;99.90;;;;;;4994491;28;20733;-74
2022/09/21 01:20:30;;;;;;;7.97;3.17;;;20.30;99.90;;;;;;5007213;28;20216;-74
2022/09/21 01:23:37;;;;;;;6.60;2.73;;;20.30;99.90;;;;;;4986407;28;20200;-74
2022/09/21 01:26:49;;;;;;;5.20;2.80;;;20.40;99.90;;;;;;4977828;28;20277;-74
2022/09/21 01:29:31;;;;;;;6.97;2.50;;;20.30;99.90;;;;;;5012673;28;20702;-74
2022/09/21 01:32:22;;;;;;;8.47;3.00;;;20.20;99.90;;;;;;4976716;28;20527;-72
2022/09/21 01:34:55;;;;;;;5.83;2.37;;;20.20;99.90;;;;;;5009387;28;20587;-74
2022/09/21 01:37:38;;;;;;;8.37;2.63;;;20.20;99.90;;;;;;4996766;28;20189;-74
2022/09/21 01:40:14;;;;;;;4.23;2.50;;;20.10;99.90;;;;;;5009385;28;20296;-74
2022/09/21 01:42:44;;;;;;;6.80;2.30;;;20.10;99.90;;;;;;4974797;28;20184;-74
2022/09/21 01:45:16;;;;;;;8.93;2.77;;;20.10;99.90;;;;;;4978037;28;20224;-74
2022/09/21 01:47:48;;;;;;;6.23;2.37;;;20.10;99.90;;;;;;4991952;28;20274;-74
2022/09/21 01:50:17;;;;;;;4.37;2.40;;;20.10;99.90;;;;;;5009858;28;20259;-74
2022/09/21 01:52:57;;;;;;;8.13;2.50;;;20.00;99.90;;;;;;5004675;28;20208;-74
2022/09/21 01:55:43;;;;;;;6.63;2.40;;;20.10;99.90;;;;;;4993266;28;20197;-74
2022/09/21 01:58:38;;;;;;;5.87;2.70;;;20.10;99.90;;;;;;4976416;28;20239;-74
2022/09/21 02:01:10;;;;;;;6.37;2.30;;;20.10;99.90;;;;;;4993687;28;20196;-71
2022/09/21 02:03:48;;;;;;;5.50;2.37;;;20.00;99.90;;;;;;5010068;28;20185;-74
2022/09/21 02:06:17;;;;;;;9.00;2.50;;;19.80;99.90;;;;;;4977301;28;20192;-74
2022/09/21 02:08:44;;;;;;;4.73;2.37;;;20.00;99.90;;;;;;5008501;28;20208;-74
2022/09/21 02:11:12;;;;;;;5.50;2.50;;;20.00;99.90;;;;;;4976448;28;20192;-72
2022/09/21 02:13:47;;;;;;;6.10;2.37;;;20.00;99.90;;;;;;4993449;28;20196;-74
2022/09/21 02:17:01;;;;;;;6.27;2.53;;;20.10;99.90;;;;;;5009712;28;20554;-73
2022/09/21 02:19:45;;;;;;;5.47;2.50;;;20.10;99.90;;;;;;4921453;28;20215;-74
2022/09/21 02:22:38;;;;;;;6.50;3.07;;;20.10;99.90;;;;;;4989132;28;20275;-74
2022/09/21 02:25:15;;;;;;;9.80;2.70;;;20.10;99.90;;;;;;5010590;28;20201;-73
2022/09/21 02:27:52;;;;;;;6.40;2.47;;;20.10;99.90;;;;;;4992303;28;20270;-74
2022/09/21 02:30:25;;;;;;;6.10;2.50;;;20.10;99.90;;;;;;5010755;28;20660;-74
2022/09/21 02:33:02;;;;;;;10.73;2.70;;;20.10;99.90;;;;;;5010627;28;20189;-73
2022/09/21 02:35:39;;;;;;;8.60;3.07;;;20.10;99.90;;;;;;5009441;28;20184;-74
2022/09/21 02:38:46;;;;;;;7.17;2.33;;;20.10;99.90;;;;;;5009226;28;20185;-74
2022/09/21 02:41:37;;;;;;;8.30;2.63;;;20.10;99.90;;;;;;4991570;28;20913;-74
2022/09/21 02:44:34;;;;;;;6.27;2.50;;;20.10;99.90;;;;;;5009793;28;20188;-74
2022/09/21 02:47:17;;;;;;;10.10;3.10;;;20.10;99.90;;;;;;4992867;28;20220;-74
2022/09/21 02:49:55;;;;;;;9.47;2.70;;;20.10;99.90;;;;;;4990836;28;20189;-74
2022/09/21 02:52:23;;;;;;;6.50;2.80;;;20.10;99.90;;;;;;4978290;28;20219;-74
2022/09/21 02:54:54;;;;;;;8.80;2.97;;;20.10;99.90;;;;;;5005663;28;20223;-74
2022/09/21 02:57:23;;;;;;;9.30;2.63;;;20.10;99.90;;;;;;4992212;28;20196;-74
2022/09/21 02:59:50;;;;;;;6.23;2.60;;;20.10;99.90;;;;;;4990408;28;20216;-74
2022/09/21 03:02:17;;;;;;;9.10;2.63;;;20.10;99.90;;;;;;4992267;28;20181;-73
2022/09/21 03:04:47;;;;;;;9.13;3.10;;;20.10;99.90;;;;;;5008592;28;20199;-74
2022/09/21 03:07:16;;;;;;;6.50;2.97;;;20.10;99.90;;;;;;5000455;28;20184;-74
2022/09/21 03:09:45;;;;;;;5.10;2.40;;;20.10;99.90;;;;;;5008821;28;20212;-73
2022/09/21 03:12:12;;;;;;;7.23;2.90;;;20.10;99.90;;;;;;5008248;28;20201;-74
2022/09/21 03:14:39;;;;;;;9.43;2.90;;;20.00;99.90;;;;;;4984321;28;20255;-74
2022/09/21 03:17:05;;;;;;;4.70;2.37;;;20.00;99.90;;;;;;4977062;28;20216;-74
2022/09/21 03:19:32;;;;;;;4.77;2.40;;;20.00;99.90;;;;;;4993044;28;20231;-73
2022/09/21 03:21:58;;;;;;;8.57;2.50;;;20.00;99.90;;;;;;4978631;28;20189;-74
2022/09/21 03:27:11;;;;;;;5.63;1.97;;;20.00;99.90;;;;;;4990011;28;20193;-74
2022/09/21 03:29:37;;;;;;;4.73;2.40;;;20.00;99.90;;;;;;5010862;28;20180;-74
2022/09/21 03:32:04;;;;;;;5.63;2.40;;;20.00;99.90;;;;;;5008414;28;20639;-74
2022/09/21 03:34:33;;;;;;;5.60;2.87;;;20.00;99.90;;;;;;4989093;28;20198;-74
2022/09/21 03:37:04;;;;;;;4.40;2.37;;;20.00;99.90;;;;;;5009835;28;20210;-73
2022/09/21 03:39:31;;;;;;;10.93;2.90;;;20.00;99.90;;;;;;4993606;28;20270;-71
2022/09/21 03:41:57;;;;;;;11.83;2.50;;;20.00;99.90;;;;;;4975780;28;20200;-74
2022/09/21 03:44:25;;;;;;;7.43;2.80;;;20.00;99.90;;;;;;5009121;28;20579;-74
2022/09/21 03:46:53;;;;;;;7.47;2.50;;;19.90;99.90;;;;;;4977494;28;20192;-74
2022/09/21 03:49:20;;;;;;;9.73;2.73;;;20.00;99.90;;;;;;5007438;28;20251;-72
2022/09/21 03:51:46;;;;;;;7.50;2.47;;;20.00;99.90;;;;;;4984720;28;20197;-74
2022/09/21 03:54:12;;;;;;;8.20;2.60;;;20.00;99.90;;;;;;5006381;28;20188;-74
2022/09/21 03:56:39;;;;;;;7.50;2.97;;;20.00;99.90;;;;;;5004134;28;20244;-73
2022/09/21 03:59:05;;;;;;;7.77;2.30;;;20.00;99.90;;;;;;4959208;28;20208;-73
2022/09/21 04:01:31;;;;;;;6.57;2.70;;;20.00;99.90;;;;;;4988680;28;20201;-74
2022/09/21 04:03:58;;;;;;;8.63;2.67;;;20.00;99.90;;;;;;4991770;28;20189;-74
2022/09/21 04:06:24;;;;;;;7.43;2.50;;;20.00;99.90;;;;;;4991873;28;20610;-74
2022/09/21 04:08:53;;;;;;;5.23;2.60;;;20.00;99.90;;;;;;4992005;28;20188;-74
2022/09/21 04:11:21;;;;;;;6.27;2.20;;;20.10;99.90;;;;;;4991332;28;20197;-73
2022/09/21 04:13:55;;;;;;;5.97;2.40;;;20.10;99.90;;;;;;5009739;28;20228;-74
2022/09/21 04:16:26;;;;;;;4.97;2.23;;;20.10;99.90;;;;;;4997101;28;20627;-71
2022/09/21 04:18:53;;;;;;;6.03;2.70;;;20.10;99.90;;;;;;4978160;28;20638;-74
2022/09/21 04:21:23;;;;;;;4.57;1.90;;;20.10;99.90;;;;;;5011797;28;20962;-74
2022/09/21 04:23:50;;;;;;;4.43;2.20;;;20.10;99.90;;;;;;4997164;28;20192;-71
2022/09/21 04:26:29;;;;;;;7.37;2.37;;;20.10;99.90;;;;;;5005738;28;20698;-74
2022/09/21 04:28:56;;;;;;;5.33;2.27;;;20.10;99.90;;;;;;5002803;28;20254;-74
2022/09/21 04:31:29;;;;;;;6.93;2.20;;;20.10;99.90;;;;;;5012929;28;20778;-74
2022/09/21 04:33:57;;;;;;;8.10;2.20;;;20.10;99.90;;;;;;4978859;28;20619;-74
2022/09/21 04:36:26;;;;;;;5.40;2.33;;;20.20;99.90;;;;;;4997312;28;20300;-74
2022/09/21 04:38:54;;;;;;;7.73;2.13;;;20.20;99.90;;;;;;5013060;28;20215;-74
2022/09/21 04:41:20;;;;;;;5.63;2.57;;;20.20;99.90;;;;;;4994030;28;20200;-74
2022/09/21 04:43:48;;;;;;;5.20;2.03;;;20.30;99.90;;;;;;5012637;28;20189;-74
2022/09/21 04:46:18;;;;;;;4.10;2.13;;;20.30;99.90;;;;;;4995402;28;20223;-74
2022/09/21 04:48:46;;;;;;;6.90;2.50;;;20.30;99.90;;;;;;4994739;28;20193;-74
2022/09/21 04:51:14;;;;;;;9.37;2.40;;;20.30;99.90;;;;;;5009566;28;20279;-74
2022/09/21 04:53:43;;;;;;;6.53;2.20;;;20.30;99.90;;;;;;4991602;28;20194;-74
2022/09/21 04:56:13;;;;;;;8.20;2.13;;;20.30;99.90;;;;;;4979305;28;20193;-73
2022/09/21 04:58:39;;;;;;;5.87;2.20;;;20.40;99.90;;;;;;4991009;28;20211;-71
2022/09/21 05:01:06;;;;;;;5.10;2.00;;;20.40;99.90;;;;;;5012500;28;20193;-74
2022/09/21 05:03:33;;;;;;;9.57;2.20;;;20.50;99.90;;;;;;4963218;28;20546;-73
2022/09/21 05:06:00;;;;;;;9.80;2.27;;;20.60;99.90;;;;;;5011388;28;20180;-74
2022/09/21 05:11:17;;;;;;;6.03;2.20;;;20.80;99.90;;;;;;4994495;28;20292;-74
2022/09/21 05:13:46;;;;;;;10.43;2.33;;;20.90;99.90;;;;;;4978391;28;20722;-73
2022/09/21 05:16:13;;;;;;;7.47;2.13;;;21.00;99.90;;;;;;5011574;28;20236;-73
2022/09/21 05:18:39;;;;;;;7.47;2.30;;;21.00;99.90;;;;;;5010920;28;20232;-74
2022/09/21 05:21:06;;;;;;;6.67;2.20;;;21.00;99.90;;;;;;4994646;28;20189;-73
2022/09/21 05:23:33;;;;;;;7.67;2.37;;;21.10;99.90;;;;;;5012318;28;20204;-73
2022/09/21 05:26:00;;;;;;;5.50;2.10;;;21.00;99.90;;;;;;5011053;28;20192;-73
2022/09/21 05:28:27;;;;;;;6.20;2.00;;;21.00;99.90;;;;;;4985917;28;20623;-74
2022/09/21 05:31:16;;;;;;;8.83;2.57;;;21.00;99.90;;;;;;4990744;28;20188;-74
2022/09/21 05:33:53;;;;;;;7.07;2.47;;;21.10;99.90;;;;;;5004485;28;20764;-74
2022/09/21 05:37:02;;;;;;;6.73;2.33;;;21.10;99.90;;;;;;5012134;28;20173;-74
2022/09/21 05:39:29;;;;;;;4.77;2.00;;;21.20;99.90;;;;;;4979425;28;20219;-74
2022/09/21 05:41:55;;;;;;;8.40;2.55;;;21.20;99.90;;;;;;4994096;28;20200;-74
2022/09/21 05:44:22;;;;;;;7.10;2.50;;;21.30;99.90;;;;;;5008238;28;20197;-73
2022/09/21 05:47:05;;;;;;;11.77;2.63;;;21.40;99.90;;;;;;4994037;28;20189;-74
2022/09/21 05:50:13;;;;;;;10.40;2.80;;;21.40;99.90;;;;;;5010311;28;20191;-74
2022/09/21 05:53:25;;;;;;;8.47;2.57;;;21.40;99.90;;;;;;4954529;28;20212;-74
2022/09/21 05:56:31;;;;;;;6.90;2.15;;;21.50;99.90;;;;;;4986777;28;20276;-74
2022/09/21 06:00:05;;;;;;;13.90;3.13;;;21.50;99.90;;;;;;4970503;28;20311;-74
2022/09/21 06:02:50;;;;;;;8.27;2.50;;;21.60;99.90;;;;;;4987958;28;20292;-74
2022/09/21 06:05:19;;;;;;;6.13;2.33;;;21.70;99.90;;;;;;5010161;28;20204;-74
2022/09/21 06:07:46;;;;;;;9.30;2.20;;;21.70;99.90;;;;;;5011442;28;20192;-74
2022/09/21 06:10:14;;;;;;;7.07;2.40;;;21.70;99.90;;;;;;4993803;28;20519;-74
2022/09/21 06:12:41;;;;;;;6.10;2.60;;;21.70;99.90;;;;;;4977278;28;20177;-74
2022/09/21 06:15:13;;;;;;;8.20;2.65;;;21.70;99.90;;;;;;4993504;28;20611;-73
2022/09/21 06:17:39;;;;;;;10.45;2.55;;;21.80;99.90;;;;;;4997159;28;20698;-74
2022/09/21 06:20:07;;;;;;;7.72;2.47;;;21.80;99.90;;;;;;5009541;28;20197;-74
2022/09/21 06:22:34;;;;;;;9.18;2.95;;;21.90;99.90;;;;;;4992043;28;20206;-74
2022/09/21 06:25:01;;;;;;;7.90;2.78;;;21.90;99.90;;;;;;4983759;28;20201;-74
2022/09/21 06:27:30;;;;;;;10.13;2.97;;;22.00;99.90;;;;;;5010956;28;20177;-74
2022/09/21 06:29:56;;;;;;;9.32;2.58;;;22.00;99.90;;;;;;4984924;28;20209;-74
2022/09/21 06:32:25;;;;;;;8.88;2.53;;;22.10;99.90;;;;;;4999520;28;20185;-74
2022/09/21 06:34:51;;;;;;;7.90;2.17;;;22.30;99.90;;;;;;4980251;28;20199;-73
2022/09/21 06:37:18;;;;;;;9.90;2.70;;;22.40;99.90;;;;;;5010875;28;20204;-73
2022/09/21 06:39:45;;;;;;;9.43;2.35;;;22.50;99.90;;;;;;5016560;28;20219;-74
2022/09/21 06:42:11;;;;;;;10.65;2.55;;;22.70;99.90;;;;;;5007395;28;20201;-73
2022/09/21 06:44:38;;;;;;;7.28;2.45;;;22.70;99.90;;;;;;4997252;28;20239;-73
2022/09/21 06:47:04;;;;;;;9.70;2.70;;;22.60;99.90;;;;;;5009918;28;20554;-73
2022/09/21 06:49:33;;;;;;;5.45;2.35;;;22.70;99.90;;;;;;5007031;28;20189;-73
2022/09/21 06:51:59;;;;;;;8.48;2.53;;;22.70;99.90;;;;;;4974605;28;20267;-73
2022/09/21 06:54:26;;;;;;;10.02;2.20;;;22.80;99.90;;;;;;5000966;28;20200;-73
2022/09/21 06:56:52;;;;;;;7.93;2.50;;;22.90;99.90;;;;;;5010331;28;20214;-74
2022/09/21 06:59:21;;;;;;;7.88;2.40;;;23.00;99.90;;;;;;4976500;28;20279;-74
2022/09/21 07:01:47;;;;;;;10.02;2.70;;;23.00;99.90;;;;;;4987209;28;20276;-74
2022/09/21 07:04:13;;;;;;;12.25;2.67;;;23.10;99.90;;;;;;5011977;28;20548;-74
2022/09/21 07:06:39;;;;;;;8.32;2.22;;;23.20;99.90;;;;;;5014557;28;20242;-74
2022/09/21 07:09:05;;;;;;;7.93;2.60;;;23.30;99.90;;;;;;5000843;28;20193;-73
2022/09/21 07:11:32;;;;;;;7.70;2.50;;;23.40;99.90;;;;;;5003583;28;20224;-73
2022/09/21 07:13:58;;;;;;;10.20;2.17;;;23.40;99.90;;;;;;4998758;28;20574;-73
2022/09/21 07:16:25;;;;;;;8.82;2.67;;;23.40;99.90;;;;;;4999372;28;20196;-73
2022/09/21 07:18:51;;;;;;;9.70;2.30;;;23.30;99.90;;;;;;5001775;28;20670;-73
2022/09/21 07:21:17;;;;;;;9.00;2.47;;;23.40;99.90;;;;;;4992465;28;20206;-73
2022/09/21 07:23:46;;;;;;;10.82;2.88;;;23.50;99.90;;;;;;5012858;28;20189;-74
2022/09/21 07:26:14;;;;;;;10.60;2.75;;;23.50;99.90;;;;;;4996051;28;20189;-73
2022/09/21 07:28:41;;;;;;;4.50;2.10;;;23.60;99.90;;;;;;4977000;28;20226;-73
2022/09/21 07:31:15;;;;;;;11.77;2.70;;;23.80;99.90;;;;;;4995385;28;20185;-73
2022/09/21 07:33:45;;;;;;;8.82;2.60;;;23.80;99.90;;;;;;4973212;28;20650;-73
2022/09/21 07:36:12;;;;;;;9.82;2.70;;;23.80;99.90;;;;;;5011133;28;20185;-74
2022/09/21 07:38:41;;;;;;;8.40;2.20;;;23.90;99.90;;;;;;4994414;28;20724;-72
2022/09/21 07:41:11;;;;;;;7.07;2.25;;;24.10;99.90;;;;;;4973643;28;20216;-72
2022/09/21 07:43:39;;;;;;;12.70;2.42;;;24.00;99.90;;;;;;4999987;28;20199;-73
2022/09/21 07:46:11;;;;;;;6.63;2.50;;;24.10;99.90;;;;;;5011108;28;20262;-72
2022/09/21 07:48:38;;;;;;;7.53;2.40;;;24.10;99.90;;;;;;5001975;28;20188;-72
2022/09/21 07:51:08;;;;;;;14.75;3.03;;;24.30;99.90;;;;;;5017578;28;20188;-72
2022/09/21 07:53:36;;;;;;;7.65;2.33;;;24.50;99.90;;;;;;5013727;28;20193;-72
2022/09/21 07:56:07;;;;;;;16.45;2.70;;;24.60;99.90;;;;;;5020882;28;20203;-72
2022/09/21 08:01:22;;;;;;;8.45;2.35;;;24.50;99.90;;;;;;5008654;28;20256;-73
2022/09/21 08:03:54;;;;;;;11.50;2.60;;;24.60;99.90;;;;;;5005328;28;20216;-72
2022/09/21 08:06:24;;;;;;;9.57;2.75;;;24.70;99.90;;;;;;4989768;28;20185;-72
2022/09/21 08:08:51;;;;;;;7.75;2.63;;;24.80;99.90;;;;;;4971731;28;20229;-72
2022/09/21 08:11:24;;;;;;;12.25;2.25;;;24.80;99.90;;;;;;5002837;28;20193;-72
2022/09/21 08:14:00;;;;;;;7.55;2.53;;;24.80;99.90;;;;;;5007043;28;21009;-72
2022/09/21 08:16:27;;;;;;;8.20;2.15;;;25.00;99.90;;;;;;5013422;28;20193;-72
2022/09/21 08:18:54;;;;;;;6.70;2.25;;;25.10;99.90;;;;;;4993713;28;20208;-72
2022/09/21 08:21:24;;;;;;;8.13;2.60;;;25.10;99.90;;;;;;4977483;28;20196;-72
2022/09/21 08:23:53;;;;;;;16.05;2.88;;;25.10;99.90;;;;;;4995722;28;20238;-72
2022/09/21 08:26:20;;;;;;;7.85;2.22;;;25.20;99.90;;;;;;5005466;28;20177;-72
2022/09/21 08:28:50;;;;;;;15.20;2.83;;;25.20;99.90;;;;;;4991530;28;20239;-72
2022/09/21 08:31:20;;;;;;;9.32;2.50;;;25.20;99.90;;;;;;5007992;28;20236;-72
2022/09/21 08:33:48;;;;;;;8.05;2.38;;;25.20;99.90;;;;;;5002694;28;20320;-72
2022/09/21 08:36:16;;;;;;;8.05;2.50;;;25.10;99.90;;;;;;5012632;28;20200;-72
2022/09/21 08:38:42;;;;;;;7.38;2.50;;;25.20;99.90;;;;;;5010339;28;20201;-72
2022/09/21 08:41:15;;;;;;;12.02;2.60;;;25.10;99.90;;;;;;4999425;28;20185;-72
2022/09/21 08:43:58;;;;;;;7.30;2.47;;;25.20;99.90;;;;;;4992586;28;20275;-72
2022/09/21 08:46:30;;;;;;;15.07;3.35;;;25.20;99.90;;;;;;4995500;28;20527;-71
2022/09/21 08:49:27;;;;;;;11.20;2.58;;;25.30;99.90;;;;;;4992428;28;20247;-73
2022/09/21 08:52:08;;;;;;;9.80;2.50;;;25.40;99.90;;;;;;5000052;28;20242;-72
2022/09/21 08:55:04;;;;;;;16.92;3.25;;;25.50;99.90;;;;;;4991454;28;20685;-72
2022/09/21 08:57:33;;;;;;;8.55;2.80;;;25.60;99.90;;;;;;4985883;28;20196;-72
2022/09/21 09:00:01;;;;;;;7.43;2.42;;;25.70;99.90;;;;;;4989275;28;20217;-72
2022/09/21 09:02:58;;;;;;;14.10;3.08;;;25.90;99.90;;;;;;5010689;28;20285;-73
2022/09/21 09:05:54;;;;;;;10.30;2.65;;;25.80;99.90;;;;;;5004559;28;20194;-72
2022/09/21 09:08:43;;;;;;;9.20;2.42;;;25.90;99.90;;;;;;5010709;28;20184;-72
2022/09/21 09:11:51;;;;;;;10.52;2.72;;;26.00;99.90;;;;;;4990162;28;20185;-72
2022/09/21 09:14:33;;;;;;;12.38;2.80;;;26.30;99.90;;;;;;4977530;28;20825;-72
2022/09/21 09:17:18;;;;;;;7.30;2.22;;;26.40;99.90;;;;;;5007251;28;20193;-72
2022/09/21 09:19:54;;;;;;;11.48;3.15;;;26.40;99.90;;;;;;4990522;28;20205;-72
2022/09/21 09:22:32;;;;;;;8.40;2.40;;;26.40;99.90;;;;;;4982613;28;20185;-72
2022/09/21 09:25:13;;;;;;;9.77;2.40;;;26.50;99.90;;;;;;4992725;28;20249;-70
2022/09/21 09:27:45;;;;;;;6.20;2.15;;;26.70;99.90;;;;;;4994187;28;20653;-72
2022/09/21 09:30:25;;;;;;;10.43;2.33;;;26.90;99.90;;;;;;4994062;28;20858;-69
2022/09/21 09:33:24;;;;;;;9.57;2.75;;;27.50;99.90;;;;;;4991957;28;20255;-72
2022/09/21 09:36:11;;;;;;;9.25;2.58;;;27.60;99.90;;;;;;4998622;28;20500;-71
2022/09/21 09:39:11;;;;;;;11.85;3.03;;;27.60;99.90;;;;;;4975896;28;20193;-69
2022/09/21 09:42:07;;;;;;;5.88;2.70;;;27.90;99.90;;;;;;5011495;28;20185;-69
2022/09/21 09:45:20;;;;;;;12.45;2.88;;;28.40;99.90;;;;;;4976250;28;20192;-69
2022/09/21 09:47:52;;;;;;;10.27;2.50;;;28.60;99.90;;;;;;4995360;28;20198;-69
2022/09/21 09:50:38;;;;;;;12.13;2.90;;;29.50;99.90;;;;;;5012743;28;20189;-70
2022/09/21 09:53:16;;;;;;;8.93;2.72;;;31.20;99.90;;;;;;5017847;28;20193;-69
2022/09/21 09:55:55;;;;;;;15.10;2.97;;;32.20;99.90;;;;;;5009843;28;20311;-70
2022/09/21 09:58:37;;;;;;;10.20;2.28;;;32.20;99.90;;;;;;5009822;28;20230;-69
2022/09/21 10:01:04;;;;;;;16.40;2.50;;;31.30;99.90;;;;;;5011292;28;20901;-70
2022/09/21 10:03:31;;;;;;;6.57;2.58;;;30.00;99.90;;;;;;5007552;28;20722;-70
2022/09/21 10:05:57;;;;;;;11.85;2.75;;;29.70;99.90;;;;;;4997181;28;20207;-70
2022/09/21 10:08:35;;;;;;;6.70;2.15;;;29.40;99.90;;;;;;4989332;28;20276;-70
2022/09/21 10:11:03;;;;;;;8.43;2.63;;;29.40;99.90;;;;;;4998168;28;20177;-70
2022/09/21 10:13:34;;;;;;;8.75;2.60;;;29.60;99.90;;;;;;4999942;28;20188;-70
2022/09/21 10:16:22;;;;;;;7.78;2.55;;;30.70;99.90;;;;;;5015789;28;20268;-70
2022/09/21 10:19:00;;;;;;;10.77;2.85;;;32.50;99.90;;;;;;4976126;28;20236;-70
2022/09/21 10:21:35;;;;;;;11.35;2.97;;;33.50;99.90;;;;;;5007548;28;20211;-70
2022/09/21 10:24:05;;;;;;;14.88;3.33;;;34.10;99.90;;;;;;4979964;28;20192;-70
2022/09/21 10:26:40;;;;;;;8.23;2.72;;;33.10;99.90;;;;;;5013282;28;20227;-71
2022/09/21 10:29:22;;;;;;;8.30;2.60;;;31.80;99.90;;;;;;5016751;28;20195;-70
2022/09/21 10:31:56;;;;;;;8.57;2.60;;;30.50;99.90;;;;;;4993184;28;20678;-70
2022/09/21 10:34:26;;;;;;;14.10;2.88;;;29.50;99.90;;;;;;5009656;28;20185;-70
2022/09/21 10:36:57;;;;;;;14.00;3.05;;;29.00;99.90;;;;;;4989533;28;20280;-69
2022/09/21 10:39:30;;;;;;;11.00;3.33;;;28.80;99.90;;;;;;5007266;28;20438;-69
2022/09/21 10:42:11;;;;;;;13.50;3.40;;;28.50;99.90;;;;;;5011443;28;20185;-69
2022/09/21 10:45:14;;;;;;;13.73;3.63;;;28.70;99.90;;;;;;4997411;28;20181;-70
2022/09/21 10:47:49;;;;;;;8.85;3.05;;;28.40;99.90;;;;;;5001915;28;20204;-70
2022/09/21 10:50:42;;;;;;;12.73;3.10;;;28.40;99.90;;;;;;5001965;28;20203;-70
2022/09/21 10:53:08;;;;;;;11.18;3.17;;;28.30;99.90;;;;;;4997576;28;20188;-72
2022/09/21 10:56:15;;;;;;;7.80;2.90;;;28.30;99.90;;;;;;5001781;28;20593;-71
2022/09/21 10:59:20;;;;;;;11.43;3.13;;;28.20;99.90;;;;;;4997862;28;20279;-73
2022/09/21 11:01:51;;;;;;;9.15;3.20;;;28.10;99.90;;;;;;5012199;28;20508;-73
2022/09/21 11:04:25;;;;;;;12.38;3.15;;;27.90;99.90;;;;;;5012399;28;20248;-72
2022/09/21 11:07:15;;;;;;;7.60;2.80;;;27.90;99.90;;;;;;4995395;28;20185;-73
2022/09/21 11:10:09;;;;;;;5.30;2.38;;;27.80;99.90;;;;;;4999883;28;20212;-72
2022/09/21 11:12:47;;;;;;;8.70;2.95;;;27.90;99.90;;;;;;4981792;28;20184;-70
2022/09/21 11:15:35;;;;;;;9.60;3.03;;;28.00;99.90;;;;;;5002304;28;20243;-72
2022/09/21 11:18:35;;;;;;;9.38;3.30;;;28.00;99.90;;;;;;5003643;28;20220;-73
2022/09/21 11:21:10;;;;;;;10.30;2.92;;;27.80;99.90;;;;;;5010092;28;20201;-73
2022/09/21 11:24:21;;;;;;;12.27;3.38;;;27.80;99.90;;;;;;5003208;28;20207;-73
2022/09/21 11:27:02;;;;;;;11.52;3.35;;;27.70;99.90;;;;;;5015047;28;20184;-73
2022/09/21 11:29:41;;;;;;;20.88;3.20;;;27.70;99.90;;;;;;5007812;28;20177;-73
2022/09/21 11:32:20;;;;;;;10.57;2.65;;;27.80;99.90;;;;;;5007442;28;20188;-72
2022/09/21 11:35:25;;;;;;;13.23;3.35;;;27.80;99.90;;;;;;5011640;28;20185;-73
2022/09/21 11:38:19;;;;;;;9.40;3.05;;;27.70;99.90;;;;;;4997263;28;20188;-73
2022/09/21 11:41:20;;;;;;;6.75;2.83;;;27.70;99.90;;;;;;4992742;28;20217;-72
2022/09/21 11:44:32;;;;;;;11.05;3.40;;;27.80;99.90;;;;;;5003216;28;20195;-73
2022/09/21 11:47:45;;;;;;;12.57;3.20;;;27.60;99.90;;;;;;5007566;28;20196;-72
2022/09/21 11:50:27;;;;;;;11.48;3.42;;;27.70;99.90;;;;;;4996365;28;20223;-73
2022/09/21 11:53:17;;;;;;;9.65;2.88;;;27.80;99.90;;;;;;4998906;28;20190;-72
2022/09/21 11:56:30;;;;;;;12.30;3.10;;;27.70;99.90;;;;;;5011903;28;20678;-73
2022/09/21 11:59:41;;;;;;;13.43;3.13;;;27.60;99.90;;;;;;4954125;28;20594;-73
2022/09/21 12:02:32;;;;;;;7.50;2.80;;;27.40;99.90;;;;;;4991267;28;20647;-70
2022/09/21 12:05:39;;;;;;;11.32;3.42;;;27.40;99.90;;;;;;4982518;28;20193;-70
2022/09/21 12:08:14;;;;;;;10.23;3.00;;;27.40;99.90;;;;;;5004547;28;20724;-71
2022/09/21 12:11:03;;;;;;;15.82;3.78;;;27.60;99.90;;;;;;5004525;28;20242;-71
2022/09/21 12:14:21;;;;;;;10.38;3.10;;;27.60;99.90;;;;;;4982766;28;20188;-70
2022/09/21 12:17:35;;;;;;;15.38;3.47;;;27.50;99.90;;;;;;4996557;28;20212;-73
2022/09/21 12:20:46;;;;;;;13.68;3.10;;;27.40;99.90;;;;;;4974696;28;20300;-73
2022/09/21 12:23:48;;;;;;;10.57;3.25;;;27.30;99.90;;;;;;5005098;28;20184;-73
2022/09/21 12:26:22;;;;;;;15.02;3.85;;;27.20;99.90;;;;;;5004253;28;20180;-73
2022/09/21 12:29:16;;;;;;;14.77;3.13;;;27.10;99.90;;;;;;5004128;28;20622;-73
2022/09/21 12:31:54;;;;;;;18.40;3.60;;;27.10;99.90;;;;;;4979203;28;20196;-73
2022/09/21 12:34:41;;;;;;;9.32;3.47;;;27.20;99.90;;;;;;5003545;28;20196;-73
2022/09/21 12:37:35;;;;;;;12.32;3.33;;;27.20;99.90;;;;;;4992103;28;20263;-73
2022/09/21 12:40:25;;;;;;;9.88;3.17;;;27.20;99.90;;;;;;4989268;28;20308;-73
2022/09/21 12:43:23;;;;;;;11.15;3.50;;;27.30;99.90;;;;;;4990338;28;20184;-74
2022/09/21 12:46:13;;;;;;;11.77;3.50;;;27.30;99.90;;;;;;5004901;28;20196;-73
2022/09/21 12:48:44;;;;;;;13.68;3.92;;;27.20;99.90;;;;;;4971051;28;20181;-73
2022/09/21 12:51:37;;;;;;;11.35;3.72;;;27.20;99.90;;;;;;5008043;28;20191;-73
2022/09/21 12:54:30;;;;;;;8.20;3.72;;;27.20;99.90;;;;;;5015296;28;20196;-73
2022/09/21 12:57:42;;;;;;;9.75;3.72;;;27.10;99.90;;;;;;4984340;28;20300;-74
2022/09/21 13:00:19;;;;;;;13.30;3.83;;;27.00;99.90;;;;;;5001545;28;20228;-74
2022/09/21 13:03:04;;;;;;;9.48;3.40;;;27.10;99.90;;;;;;4989027;28;20184;-73
2022/09/21 13:05:55;;;;;;;11.32;3.83;;;27.00;99.90;;;;;;4992570;28;20181;-73
2022/09/21 13:08:35;;;;;;;11.48;3.45;;;27.00;99.90;;;;;;5001512;28;20231;-73
2022/09/21 13:11:06;;;;;;;12.63;3.70;;;27.00;99.90;;;;;;4980832;28;20193;-73
2022/09/21 13:13:51;;;;;;;9.70;3.50;;;27.00;99.90;;;;;;4969892;28;20195;-73
2022/09/21 13:16:26;;;;;;;9.32;3.15;;;26.90;99.90;;;;;;5001931;28;20712;-73
2022/09/21 13:19:17;;;;;;;12.20;3.40;;;26.70;99.90;;;;;;5011305;28;20221;-73
2022/09/21 13:21:44;;;;;;;11.73;3.97;;;26.50;99.90;;;;;;5016021;28;20215;-73
2022/09/21 13:24:29;;;;;;;9.63;3.70;;;26.40;99.90;;;;;;5000471;28;20199;-73
2022/09/21 13:27:04;;;;;;;9.40;3.40;;;26.40;99.90;;;;;;4998945;28;20188;-72
2022/09/21 13:29:34;;;;;;;7.93;3.35;;;26.30;99.90;;;;;;4986300;28;20529;-73
2022/09/21 13:32:07;;;;;;;10.15;3.40;;;26.20;99.90;;;;;;4997428;28;20189;-73
2022/09/21 13:34:45;;;;;;;13.55;3.90;;;26.20;99.90;;;;;;4981018;28;20193;-73
2022/09/21 13:37:19;;;;;;;11.15;3.83;;;26.10;99.90;;;;;;5009437;28;20597;-73
2022/09/21 13:40:02;;;;;;;11.00;3.92;;;26.00;99.90;;;;;;4987149;28;20728;-73
2022/09/21 13:42:35;;;;;;;12.95;3.70;;;26.00;99.90;;;;;;4981920;28;20272;-73